createdAt,value
2023-09-07T00:01:45.673Z,26.48
2023-09-07T00:04:30.874Z,26.10
2023-09-07T00:07:16.147Z,23.27
2023-09-07T00:10:01.592Z,22.20
2023-09-07T00:12:47.188Z,22.63
2023-09-07T00:15:38.101Z,22.48
2023-09-07T00:18:23.486Z,23.48
2023-09-07T00:21:08.942Z,23.75
2023-09-07T00:23:53.881Z,24.15
2023-09-07T00:26:38.999Z,25.40
2023-09-07T00:29:24.333Z,25.02
2023-09-07T00:32:10.313Z,24.48
2023-09-07T00:34:55.264Z,25.73
2023-09-07T00:37:40.458Z,24.63
2023-09-07T00:40:27.326Z,24.52
2023-09-07T00:43:13.151Z,23.80
2023-09-07T00:45:58.306Z,24.25
2023-09-07T00:48:44.011Z,27.13
2023-09-07T00:51:29.773Z,26.90
2023-09-07T00:54:15.183Z,30.42
2023-09-07T00:57:00.664Z,29.13
2023-09-07T00:59:45.909Z,28.25
2023-09-07T01:02:32.380Z,30.27
2023-09-07T01:05:17.699Z,32.25
2023-09-07T01:08:13.074Z,35.83
2023-09-07T01:10:58.418Z,36.42
2023-09-07T01:13:44.208Z,30.25
2023-09-07T01:16:30.118Z,27.05
2023-09-07T01:19:15.720Z,24.67
2023-09-07T01:22:01.746Z,23.73
2023-09-07T01:24:48.119Z,25.92
2023-09-07T01:27:34.435Z,24.58
2023-09-07T01:30:19.662Z,25.38
2023-09-07T01:33:04.976Z,24.63
2023-09-07T01:35:50.621Z,26.83
2023-09-07T01:38:35.657Z,26.40
2023-09-07T01:41:20.902Z,27.55
2023-09-07T01:44:06.334Z,25.70
2023-09-07T01:46:51.788Z,26.65
2023-09-07T01:49:37.173Z,24.00
2023-09-07T01:52:22.322Z,24.38
2023-09-07T01:55:08.168Z,23.08
2023-09-07T01:57:53.238Z,22.50
2023-09-07T02:00:39.816Z,23.90
2023-09-07T02:03:26.455Z,26.50
2023-09-07T02:06:11.569Z,24.88
2023-09-07T02:08:56.887Z,24.08
2023-09-07T02:11:41.962Z,25.27
2023-09-07T02:14:27.218Z,26.20
2023-09-07T02:17:15.404Z,26.83
2023-09-07T02:20:00.625Z,27.65
2023-09-07T02:22:45.910Z,25.63
2023-09-07T02:25:31.826Z,24.15
2023-09-07T02:28:16.845Z,23.88
2023-09-07T02:31:06.582Z,24.60
2023-09-07T02:33:52.063Z,23.73
2023-09-07T02:36:37.456Z,21.98
2023-09-07T02:39:22.592Z,19.70
2023-09-07T02:42:07.881Z,19.65
2023-09-07T02:44:52.980Z,24.48
2023-09-07T02:47:38.150Z,25.92
2023-09-07T02:50:23.818Z,19.83
2023-09-07T02:53:09.334Z,17.20
2023-09-07T02:55:54.711Z,15.95
2023-09-07T02:58:40.755Z,15.85
2023-09-07T03:01:25.879Z,14.98
2023-09-07T03:04:11.141Z,16.60
2023-09-07T03:06:56.294Z,16.40
2023-09-07T03:09:41.852Z,18.20
2023-09-07T03:12:28.647Z,23.42
2023-09-07T03:15:13.702Z,22.20
2023-09-07T03:17:59.155Z,20.38
2023-09-07T03:20:44.271Z,18.73
2023-09-07T03:23:30.534Z,19.15
2023-09-07T03:26:15.853Z,18.02
2023-09-07T03:29:00.917Z,17.25
2023-09-07T03:31:46.634Z,17.13
2023-09-07T03:34:31.651Z,16.73
2023-09-07T03:37:16.790Z,15.07
2023-09-07T03:40:01.869Z,17.15
2023-09-07T03:42:47.578Z,20.05
2023-09-07T03:45:32.631Z,27.20
2023-09-07T03:48:18.007Z,34.42
2023-09-07T03:51:07.187Z,37.92
2023-09-07T03:53:52.597Z,36.90
2023-09-07T03:56:37.625Z,39.97
2023-09-07T03:59:23.256Z,40.03
2023-09-07T04:02:08.548Z,36.60
2023-09-07T04:04:56.375Z,38.00
2023-09-07T04:07:41.643Z,34.92
2023-09-07T04:10:26.768Z,34.67
2023-09-07T04:13:12.017Z,32.53
2023-09-07T04:15:57.099Z,36.78
2023-09-07T04:18:44.154Z,34.53
2023-09-07T04:21:29.651Z,27.38
2023-09-07T04:24:14.545Z,19.90
2023-09-07T04:27:02.042Z,21.13
2023-09-07T04:29:47.324Z,20.25
2023-09-07T04:32:32.347Z,18.27
2023-09-07T04:35:17.431Z,16.10
2023-09-07T04:38:02.582Z,14.57
2023-09-07T04:40:47.743Z,13.85
2023-09-07T04:43:32.637Z,14.48
2023-09-07T04:46:19.041Z,13.65
2023-09-07T04:49:06.147Z,14.13
2023-09-07T04:51:54.250Z,14.95
2023-09-07T04:54:39.635Z,15.45
2023-09-07T04:57:24.810Z,16.00
2023-09-07T05:00:10.812Z,14.30
2023-09-07T05:02:56.437Z,12.82
2023-09-07T05:05:43.131Z,12.15
2023-09-07T05:08:28.504Z,14.63
2023-09-07T05:11:13.947Z,16.75
2023-09-07T05:13:59.172Z,18.90
2023-09-07T05:16:45.308Z,28.95
2023-09-07T05:19:30.406Z,28.45
2023-09-07T05:22:15.533Z,30.10
2023-09-07T05:25:02.953Z,34.33
2023-09-07T05:27:50.001Z,36.55
2023-09-07T05:30:35.507Z,46.17
2023-09-07T05:33:21.220Z,51.85
2023-09-07T05:36:06.418Z,55.53
2023-09-07T05:38:51.773Z,55.55
2023-09-07T05:41:36.783Z,56.13
2023-09-07T05:44:22.012Z,52.63
2023-09-07T05:47:13.098Z,46.78
2023-09-07T05:49:58.022Z,37.47
2023-09-07T05:52:43.251Z,35.15
2023-09-07T05:55:28.411Z,34.35
2023-09-07T05:58:13.751Z,30.02
2023-09-07T06:00:59.236Z,29.38
2023-09-07T06:03:44.640Z,32.90
2023-09-07T06:06:30.046Z,31.13
2023-09-07T06:09:15.546Z,34.83
2023-09-07T06:12:00.984Z,31.58
2023-09-07T06:14:46.399Z,36.15
2023-09-07T06:17:31.414Z,33.33
2023-09-07T06:20:17.309Z,33.90
2023-09-07T06:23:02.764Z,31.42
2023-09-07T06:25:47.970Z,38.13
2023-09-07T06:28:33.742Z,33.65
2023-09-07T06:31:20.140Z,27.45
2023-09-07T06:34:05.531Z,26.85
2023-09-07T06:36:51.432Z,25.08
2023-09-07T06:39:36.539Z,25.42
2023-09-07T06:42:21.627Z,22.75
2023-09-07T06:45:07.330Z,21.98
2023-09-07T06:47:52.791Z,20.17
2023-09-07T06:50:38.203Z,19.98
2023-09-07T06:53:23.446Z,22.10
2023-09-07T06:56:08.851Z,20.67
2023-09-07T06:58:55.847Z,20.50
2023-09-07T07:01:41.322Z,20.88
2023-09-07T07:04:26.615Z,20.60
2023-09-07T07:07:12.124Z,11.80
2023-09-07T07:09:57.303Z,24.23
2023-09-07T07:12:42.410Z,25.55
2023-09-07T07:15:27.535Z,25.15
2023-09-07T07:18:12.832Z,26.52
2023-09-07T07:20:58.032Z,34.47
2023-09-07T07:23:43.315Z,42.80
2023-09-07T07:26:28.302Z,43.10
2023-09-07T07:29:13.549Z,60.35
2023-09-07T07:31:59.006Z,63.10
2023-09-07T07:34:44.360Z,60.28
2023-09-07T07:37:29.408Z,57.17
2023-09-07T07:40:14.665Z,59.78
2023-09-07T07:42:59.982Z,58.72
2023-09-07T07:45:45.256Z,60.42
2023-09-07T07:48:30.736Z,55.55
2023-09-07T07:51:16.110Z,56.33
2023-09-07T07:54:01.412Z,52.78
2023-09-07T07:56:46.500Z,55.20
2023-09-07T07:59:31.507Z,53.45
2023-09-07T08:02:16.531Z,56.03
2023-09-07T08:05:01.737Z,55.30
2023-09-07T08:07:47.255Z,53.63
2023-09-07T08:10:38.784Z,52.58
2023-09-07T08:13:24.287Z,52.67
2023-09-07T08:16:11.095Z,51.22
2023-09-07T08:18:57.750Z,53.25
2023-09-07T08:21:43.402Z,49.58
2023-09-07T08:24:28.736Z,48.13
2023-09-07T08:27:19.297Z,48.80
2023-09-07T08:30:07.090Z,46.22
2023-09-07T08:32:52.972Z,44.17
2023-09-07T08:35:45.172Z,45.65
2023-09-07T08:38:32.210Z,44.65
2023-09-07T08:41:18.434Z,39.67
2023-09-07T08:44:07.611Z,42.13
2023-09-07T08:46:53.671Z,40.70
2023-09-07T08:49:39.535Z,38.92
2023-09-07T08:52:24.955Z,41.20
2023-09-07T08:55:12.382Z,38.08
2023-09-07T08:57:58.052Z,39.13
2023-09-07T09:00:44.434Z,37.50
2023-09-07T09:03:31.278Z,37.63
2023-09-07T09:06:21.275Z,36.38
2023-09-07T09:09:06.837Z,36.10
2023-09-07T09:11:52.444Z,31.38
2023-09-07T09:14:37.478Z,37.28
2023-09-07T09:17:26.090Z,37.25
2023-09-07T09:20:24.869Z,33.97
2023-09-07T09:23:12.742Z,31.93
2023-09-07T09:25:57.840Z,31.45
2023-09-07T09:28:47.569Z,29.83
2023-09-07T09:31:32.630Z,29.73
2023-09-07T09:34:19.217Z,24.90
2023-09-07T09:37:04.951Z,25.60
2023-09-07T09:39:51.917Z,24.50
2023-09-07T09:42:39.595Z,25.80
2023-09-07T09:45:27.694Z,26.13
2023-09-07T09:48:13.745Z,23.77
2023-09-07T09:51:00.342Z,22.70
2023-09-07T09:53:46.266Z,24.38
2023-09-07T09:56:31.433Z,24.95
2023-09-07T09:59:17.113Z,24.42
2023-09-07T10:02:04.030Z,23.50
2023-09-07T10:04:50.749Z,25.13
2023-09-07T10:07:48.894Z,22.65
2023-09-07T10:10:38.171Z,22.13
2023-09-07T10:13:31.648Z,24.17
2023-09-07T10:16:17.536Z,19.15
2023-09-07T10:19:02.565Z,20.73
2023-09-07T10:21:48.724Z,18.35
2023-09-07T10:24:40.072Z,18.67
2023-09-07T10:27:25.378Z,18.33
2023-09-07T10:30:12.725Z,18.13
2023-09-07T10:32:59.102Z,15.07
2023-09-07T10:35:44.811Z,12.75
2023-09-07T10:38:32.063Z,12.80
2023-09-07T10:41:17.826Z,12.93
2023-09-07T10:44:03.729Z,14.25
2023-09-07T10:46:48.974Z,12.70
2023-09-07T10:49:37.272Z,12.52
2023-09-07T10:52:22.739Z,12.10
2023-09-07T10:55:13.942Z,10.93
2023-09-07T10:57:59.218Z,10.68
2023-09-07T11:00:44.367Z,9.85
2023-09-07T11:03:29.584Z,9.50
2023-09-07T11:06:20.334Z,9.02
2023-09-07T11:09:06.047Z,7.45
2023-09-07T11:11:51.456Z,8.57
2023-09-07T11:14:40.132Z,7.88
2023-09-07T11:17:29.442Z,6.72
2023-09-07T11:23:05.780Z,7.05
2023-09-07T11:25:53.287Z,6.95
2023-09-07T11:28:39.144Z,5.40
2023-09-07T11:31:24.463Z,5.28
2023-09-07T11:34:11.655Z,5.82
2023-09-07T11:36:56.819Z,5.35
2023-09-07T11:39:42.195Z,5.53
2023-09-07T11:42:27.311Z,5.18
2023-09-07T11:45:14.429Z,5.35
2023-09-07T11:47:59.370Z,4.90
2023-09-07T11:50:44.537Z,4.95
2023-09-07T11:53:31.042Z,3.83
2023-09-07T11:56:16.982Z,4.60
2023-09-07T11:59:02.385Z,3.67
2023-09-07T12:01:47.496Z,4.13
2023-09-07T12:04:32.810Z,4.22
2023-09-07T12:07:18.241Z,4.57
2023-09-07T12:10:04.198Z,3.88
2023-09-07T12:12:49.626Z,4.00
2023-09-07T12:15:34.635Z,3.65
2023-09-07T12:18:20.091Z,3.70
2023-09-07T12:21:05.196Z,3.95
2023-09-07T12:23:50.306Z,3.88
2023-09-07T12:26:35.464Z,3.70
2023-09-07T12:29:21.856Z,4.13
2023-09-07T12:32:07.387Z,2.95
2023-09-07T12:34:54.910Z,3.13
2023-09-07T12:37:40.230Z,3.03
2023-09-07T12:40:25.591Z,2.88
2023-09-07T12:43:11.217Z,2.88
2023-09-07T12:45:56.659Z,2.97
2023-09-07T12:48:41.941Z,2.60
2023-09-07T12:51:27.162Z,3.65
2023-09-07T12:54:12.232Z,3.03
2023-09-07T12:56:57.276Z,3.00
2023-09-07T12:59:42.604Z,3.45
2023-09-07T13:02:27.832Z,2.40
2023-09-07T13:05:13.086Z,3.08
2023-09-07T13:08:00.465Z,2.80
2023-09-07T13:10:45.730Z,2.75
2023-09-07T13:13:32.140Z,2.65
2023-09-07T13:16:17.460Z,2.58
2023-09-07T13:19:02.750Z,3.03
2023-09-07T13:21:48.064Z,2.78
2023-09-07T13:24:33.382Z,2.70
2023-09-07T13:27:18.508Z,2.90
2023-09-07T13:30:04.836Z,2.90
2023-09-07T13:32:51.234Z,3.38
2023-09-07T13:35:36.470Z,2.88
2023-09-07T13:38:21.844Z,2.70
2023-09-07T13:41:07.146Z,2.80
2023-09-07T13:43:52.227Z,2.90
2023-09-07T13:46:37.642Z,3.05
2023-09-07T13:49:22.870Z,2.80
2023-09-07T13:52:08.312Z,3.05
2023-09-07T13:54:53.757Z,2.83
2023-09-07T13:57:38.791Z,2.95
2023-09-07T14:00:24.486Z,2.88
2023-09-07T14:03:10.199Z,3.00
2023-09-07T14:05:55.990Z,2.90
2023-09-07T14:08:41.426Z,2.80
2023-09-07T14:11:27.226Z,2.90
2023-09-07T14:14:12.596Z,2.95
2023-09-07T14:16:59.556Z,3.13
2023-09-07T14:19:46.587Z,2.72
2023-09-07T14:22:31.727Z,3.13
2023-09-07T14:25:17.564Z,2.78
2023-09-07T14:28:02.908Z,2.80
2023-09-07T14:30:48.725Z,3.10
2023-09-07T14:33:35.074Z,3.10
2023-09-07T14:36:20.381Z,3.33
2023-09-07T14:39:08.035Z,3.05
2023-09-07T14:41:56.112Z,3.13
2023-09-07T14:44:41.159Z,3.28
2023-09-07T14:47:27.343Z,2.85
2023-09-07T14:50:12.372Z,3.00
2023-09-07T14:52:57.763Z,2.70
2023-09-07T14:55:43.198Z,3.45
2023-09-07T14:58:28.602Z,3.05
2023-09-07T15:01:13.593Z,2.90
2023-09-07T15:03:58.941Z,3.05
2023-09-07T15:06:44.303Z,2.75
2023-09-07T15:09:29.919Z,3.15
2023-09-07T15:12:15.344Z,2.70
2023-09-07T15:15:00.568Z,2.92
2023-09-07T15:17:49.343Z,3.03
2023-09-07T15:23:20.190Z,3.03
2023-09-07T15:26:05.222Z,3.40
2023-09-07T15:28:50.377Z,3.20
2023-09-07T15:31:35.596Z,2.75
2023-09-07T15:34:20.562Z,2.90
2023-09-07T15:37:06.002Z,2.95
2023-09-07T15:39:51.592Z,3.15
2023-09-07T15:42:36.739Z,3.03
2023-09-07T15:45:22.052Z,3.20
2023-09-07T15:48:07.693Z,3.10
2023-09-07T15:50:53.688Z,3.00
2023-09-07T15:53:39.110Z,3.47
2023-09-07T15:56:24.286Z,3.30
2023-09-07T15:59:09.420Z,3.30
2023-09-07T16:01:54.663Z,3.03
2023-09-07T16:04:39.585Z,3.03
2023-09-07T16:07:24.651Z,3.70
2023-09-07T16:10:11.346Z,3.13
2023-09-07T16:12:56.813Z,3.42
2023-09-07T16:15:42.161Z,3.80
2023-09-07T16:18:27.715Z,3.38
2023-09-07T16:21:16.676Z,3.70
2023-09-07T16:24:02.039Z,3.90
2023-09-07T16:26:47.381Z,3.60
2023-09-07T16:29:32.502Z,4.53
2023-09-07T16:32:18.090Z,4.35
2023-09-07T16:35:03.317Z,4.05
2023-09-07T16:37:48.595Z,3.80
2023-09-07T16:40:37.333Z,4.05
2023-09-07T16:43:25.227Z,4.22
2023-09-07T16:46:10.232Z,4.78
2023-09-07T16:48:55.291Z,4.35
2023-09-07T16:51:40.491Z,4.10
2023-09-07T16:54:25.560Z,4.28
2023-09-07T16:57:11.214Z,4.15
2023-09-07T16:59:57.865Z,4.55
2023-09-07T17:02:43.478Z,4.28
2023-09-07T17:05:29.171Z,3.90
2023-09-07T17:08:18.269Z,4.70
2023-09-07T17:11:03.290Z,4.43
2023-09-07T17:14:01.057Z,4.50
2023-09-07T17:16:47.507Z,4.32
2023-09-07T17:19:32.668Z,3.85
2023-09-07T17:22:17.812Z,3.88
2023-09-07T17:25:04.364Z,4.10
2023-09-07T17:27:49.691Z,3.95
2023-09-07T17:30:38.289Z,3.70
2023-09-07T17:33:23.482Z,3.13
2023-09-07T17:36:19.527Z,3.42
2023-09-07T17:39:06.148Z,3.13
2023-09-07T17:41:52.344Z,3.38
2023-09-07T17:44:37.748Z,2.70
2023-09-07T17:47:25.931Z,2.83
2023-09-07T17:50:11.916Z,2.65
2023-09-07T17:52:57.288Z,2.22
2023-09-07T17:55:42.551Z,2.67
2023-09-07T17:58:27.450Z,2.10
2023-09-07T18:01:15.142Z,2.67
2023-09-07T18:04:00.692Z,2.17
2023-09-07T18:06:46.281Z,2.33
2023-09-07T18:09:31.773Z,2.90
2023-09-07T18:12:17.426Z,2.40
2023-09-07T18:15:02.638Z,3.00
2023-09-07T18:17:48.040Z,3.22
2023-09-07T18:20:33.391Z,2.30
2023-09-07T18:23:18.436Z,2.83
2023-09-07T18:26:04.146Z,2.90
2023-09-07T18:28:49.454Z,2.90
2023-09-07T18:31:34.598Z,3.13
2023-09-07T18:34:19.802Z,2.72
2023-09-07T18:37:05.042Z,2.80
2023-09-07T18:39:50.460Z,2.83
2023-09-07T18:42:35.784Z,2.67
2023-09-07T18:45:21.212Z,3.30
2023-09-07T18:48:07.173Z,3.40
2023-09-07T18:51:00.959Z,3.58
2023-09-07T18:53:46.362Z,3.78
2023-09-07T18:56:31.800Z,3.42
2023-09-07T18:59:16.984Z,3.70
2023-09-07T19:02:02.250Z,3.65
2023-09-07T19:04:49.934Z,3.38
2023-09-07T19:07:35.965Z,3.55
2023-09-07T19:10:21.303Z,3.25
2023-09-07T19:13:06.359Z,3.58
2023-09-07T19:15:51.246Z,3.40
2023-09-07T19:18:36.307Z,4.00
2023-09-07T19:21:24.692Z,4.32
2023-09-07T19:24:10.435Z,3.67
2023-09-07T19:26:55.594Z,4.10
2023-09-07T19:29:40.853Z,4.00
2023-09-07T19:32:27.111Z,4.60
2023-09-07T19:35:12.022Z,4.75
2023-09-07T19:37:57.089Z,4.72
2023-09-07T19:40:42.408Z,4.07
2023-09-07T19:43:27.470Z,4.85
2023-09-07T19:46:14.027Z,4.63
2023-09-07T19:48:59.367Z,4.63
2023-09-07T19:51:44.585Z,3.97
2023-09-07T19:54:30.002Z,3.83
2023-09-07T19:57:14.881Z,3.42
2023-09-07T20:00:00.069Z,3.60
2023-09-07T20:02:45.099Z,3.78
2023-09-07T20:05:30.361Z,4.05
2023-09-07T20:08:15.675Z,3.92
2023-09-07T20:11:01.191Z,4.53
2023-09-07T20:13:48.083Z,4.43
2023-09-07T20:16:33.759Z,4.57
2023-09-07T20:19:19.235Z,4.72
2023-09-07T20:22:04.839Z,4.15
2023-09-07T20:24:50.085Z,4.35
2023-09-07T20:27:35.191Z,4.78
2023-09-07T20:30:20.292Z,4.75
2023-09-07T20:33:05.843Z,4.45
2023-09-07T20:35:50.974Z,4.93
2023-09-07T20:38:37.441Z,5.03
2023-09-07T20:41:22.848Z,4.82
2023-09-07T20:44:08.387Z,4.90
2023-09-07T20:46:53.605Z,4.90
2023-09-07T20:49:39.044Z,4.47
2023-09-07T20:52:24.240Z,4.68
2023-09-07T20:55:11.290Z,4.80
2023-09-07T20:57:56.506Z,5.30
2023-09-07T21:00:41.725Z,5.28
2023-09-07T21:03:26.977Z,4.55
2023-09-07T21:06:12.812Z,5.03
2023-09-07T21:08:58.316Z,5.03
2023-09-07T21:11:44.907Z,4.47
2023-09-07T21:14:30.352Z,4.10
2023-09-07T21:17:15.681Z,4.38
2023-09-07T21:20:00.988Z,4.70
2023-09-07T21:22:46.478Z,4.35
2023-09-07T21:25:31.849Z,4.55
2023-09-07T21:28:17.501Z,4.40
2023-09-07T21:31:02.452Z,4.53
2023-09-07T21:33:47.965Z,4.70
2023-09-07T21:36:33.462Z,4.45
2023-09-07T21:39:18.622Z,4.35
2023-09-07T21:42:04.793Z,4.30
2023-09-07T21:44:50.664Z,4.53
2023-09-07T21:47:35.963Z,4.60
2023-09-07T21:50:21.437Z,4.25
2023-09-07T21:53:06.970Z,4.15
2023-09-07T21:55:52.064Z,3.92
2023-09-07T21:58:37.343Z,4.05
2023-09-07T22:01:22.663Z,4.40
2023-09-07T22:04:08.014Z,4.25
2023-09-07T22:06:53.686Z,4.75
2023-09-07T22:09:38.869Z,4.80
2023-09-07T22:12:24.200Z,4.00
2023-09-07T22:15:09.969Z,4.53
2023-09-07T22:17:55.524Z,4.70
2023-09-07T22:20:41.023Z,5.00
2023-09-07T22:23:36.919Z,4.47
2023-09-07T22:26:27.349Z,4.47
2023-09-07T22:29:12.807Z,4.53
2023-09-07T22:31:58.330Z,4.53
2023-09-07T22:34:43.901Z,4.80
2023-09-07T22:37:29.296Z,4.80
2023-09-07T22:40:17.525Z,4.72
2023-09-07T22:43:05.142Z,4.72
2023-09-07T22:45:50.669Z,4.93
2023-09-07T22:48:36.462Z,4.80
2023-09-07T22:51:22.027Z,5.13
2023-09-07T22:54:07.562Z,5.03
2023-09-07T22:56:53.061Z,4.50
2023-09-07T22:59:38.960Z,4.65
2023-09-07T23:02:23.918Z,4.18
2023-09-07T23:05:09.628Z,4.57
2023-09-07T23:07:54.513Z,4.22
2023-09-07T23:10:39.966Z,4.32
2023-09-07T23:13:26.722Z,4.00
2023-09-07T23:16:12.162Z,3.85
2023-09-07T23:18:57.647Z,3.60
2023-09-07T23:21:42.760Z,3.80
2023-09-07T23:24:28.474Z,3.75
2023-09-07T23:27:13.756Z,4.13
2023-09-07T23:30:00.791Z,4.45
2023-09-07T23:32:46.214Z,4.28
2023-09-07T23:35:31.474Z,4.28
2023-09-07T23:38:16.856Z,4.43
2023-09-07T23:41:02.137Z,3.90
2023-09-07T23:43:48.219Z,4.18
2023-09-07T23:46:33.609Z,4.15
2023-09-07T23:49:18.958Z,4.13
2023-09-07T23:52:04.486Z,3.85
2023-09-07T23:54:49.649Z,3.92
2023-09-07T23:57:34.652Z,3.80
